Time;durP1;ratioP1;P1;durP2;ratioP2;P2;SDS_P1;SDS_P2;PMS_P1;PMS_P2;Temp;Humidity;BMP_temperature;BMP_pressure;BME280_temperature;BME280_humidity;BME280_pressure;Samples;Min_cycle;Max_cycle;Signal;HPM_P1;HPM_P2
2022/08/16 00:02:17;;;;;;;1.47;0.90;;;22.90;90.20;;;;;;5012450;28;20464;-75
2022/08/16 00:04:44;;;;;;;1.50;0.90;;;22.90;90.60;;;;;;5012544;28;20564;-75
2022/08/16 00:07:12;;;;;;;1.43;0.90;;;22.80;91.00;;;;;;5013174;28;21176;-75
2022/08/16 00:09:41;;;;;;;1.40;0.90;;;22.80;91.10;;;;;;5011952;28;20506;-75
2022/08/16 00:12:09;;;;;;;1.47;0.90;;;22.80;91.50;;;;;;5012178;28;20465;-75
2022/08/16 00:14:36;;;;;;;1.50;0.90;;;22.70;91.10;;;;;;5012144;28;20467;-75
2022/08/16 00:17:04;;;;;;;1.47;0.90;;;22.70;91.50;;;;;;5011246;28;20465;-75
2022/08/16 00:19:33;;;;;;;1.77;1.40;;;22.70;91.30;;;;;;5012272;28;20488;-75
2022/08/16 00:22:01;;;;;;;1.50;0.90;;;22.60;91.70;;;;;;5009706;28;20839;-75
2022/08/16 00:24:29;;;;;;;1.43;0.90;;;22.60;91.50;;;;;;5010280;28;20526;-75
2022/08/16 00:26:58;;;;;;;1.50;0.90;;;22.50;92.70;;;;;;5008346;28;20525;-75
2022/08/16 00:29:25;;;;;;;1.43;0.90;;;22.40;93.20;;;;;;5015828;28;21013;-75
2022/08/16 00:31:53;;;;;;;1.47;0.90;;;22.40;92.70;;;;;;5009404;28;20460;-75
2022/08/16 00:34:21;;;;;;;1.50;0.90;;;22.30;93.20;;;;;;5010067;28;20495;-75
2022/08/16 00:36:49;;;;;;;1.50;0.90;;;22.30;92.80;;;;;;5007362;28;20514;-75
2022/08/16 00:39:18;;;;;;;1.50;1.00;;;22.20;92.80;;;;;;5012087;28;20563;-75
2022/08/16 00:41:47;;;;;;;1.43;0.90;;;22.20;93.10;;;;;;5009512;28;20492;-75
2022/08/16 00:44:18;;;;;;;1.47;0.90;;;22.20;92.60;;;;;;5010737;28;20674;-74
2022/08/16 00:46:51;;;;;;;1.50;0.90;;;22.30;92.90;;;;;;5008956;28;20468;-76
2022/08/16 00:49:19;;;;;;;1.47;0.90;;;22.20;93.30;;;;;;5009469;28;20503;-75
2022/08/16 00:51:47;;;;;;;1.47;0.90;;;22.20;93.60;;;;;;5011465;28;20860;-75
2022/08/16 00:54:15;;;;;;;1.50;0.90;;;22.20;93.40;;;;;;5012147;28;20460;-75
2022/08/16 00:56:47;;;;;;;1.70;1.20;;;22.10;93.40;;;;;;5011367;28;20460;-75
2022/08/16 00:59:16;;;;;;;1.43;0.90;;;22.10;93.80;;;;;;5007201;28;20849;-75
2022/08/16 01:01:44;;;;;;;1.47;0.90;;;22.00;93.30;;;;;;5009062;28;20486;-75
2022/08/16 01:04:13;;;;;;;1.50;1.00;;;22.00;94.10;;;;;;5018764;28;20467;-75
2022/08/16 01:06:41;;;;;;;1.47;0.90;;;22.00;94.60;;;;;;5007617;28;20482;-75
2022/08/16 01:09:08;;;;;;;1.50;0.90;;;21.90;94.20;;;;;;5018936;28;20914;-75
2022/08/16 01:11:38;;;;;;;1.50;0.90;;;21.90;94.80;;;;;;5005955;28;20561;-76
2022/08/16 01:14:11;;;;;;;1.47;0.90;;;21.90;95.70;;;;;;5017999;28;20468;-75
2022/08/16 01:16:41;;;;;;;1.47;0.90;;;21.80;95.30;;;;;;5006895;28;20999;-75
2022/08/16 01:19:18;;;;;;;1.43;0.90;;;21.80;95.60;;;;;;5020177;28;20619;-75
2022/08/16 01:21:53;;;;;;;1.47;0.90;;;21.70;96.30;;;;;;5017151;28;20479;-76
2022/08/16 01:24:32;;;;;;;1.50;0.90;;;21.60;96.30;;;;;;5005688;28;20468;-75
2022/08/16 01:27:03;;;;;;;1.47;0.90;;;21.50;95.80;;;;;;5008704;28;20455;-75
2022/08/16 01:29:37;;;;;;;1.47;0.90;;;21.50;95.70;;;;;;5009393;28;20555;-75
2022/08/16 01:32:05;;;;;;;1.50;1.10;;;21.50;96.20;;;;;;5008313;28;20506;-75
2022/08/16 01:34:32;;;;;;;1.43;0.90;;;21.50;96.20;;;;;;5015212;28;20996;-75
2022/08/16 01:37:03;;;;;;;1.50;0.90;;;21.40;96.20;;;;;;5008917;28;20562;-75
2022/08/16 01:39:33;;;;;;;1.47;0.90;;;21.40;96.30;;;;;;5014318;28;20492;-75
2022/08/16 01:42:00;;;;;;;2.07;1.87;;;21.40;96.40;;;;;;5007091;28;20550;-75
2022/08/16 01:44:28;;;;;;;1.47;0.90;;;21.40;96.50;;;;;;5014933;28;20611;-75
2022/08/16 01:46:56;;;;;;;1.50;0.90;;;21.40;96.60;;;;;;5006496;28;20491;-75
2022/08/16 01:49:26;;;;;;;1.50;0.90;;;21.30;96.90;;;;;;5014227;28;20506;-75
2022/08/16 01:51:56;;;;;;;1.47;0.90;;;21.30;96.80;;;;;;5011838;28;20460;-75
2022/08/16 01:54:24;;;;;;;1.50;0.90;;;21.30;97.30;;;;;;5012414;28;20470;-76
2022/08/16 01:56:53;;;;;;;1.50;0.90;;;21.30;97.00;;;;;;5008840;28;20907;-75
2022/08/16 01:59:21;;;;;;;1.50;0.90;;;21.30;96.70;;;;;;5018388;28;20519;-74
2022/08/16 02:01:50;;;;;;;1.43;0.90;;;21.20;96.50;;;;;;5008262;28;20489;-74
2022/08/16 02:04:18;;;;;;;1.43;0.90;;;21.20;96.60;;;;;;5018934;28;20455;-74
2022/08/16 02:06:45;;;;;;;1.47;0.90;;;21.20;96.70;;;;;;5012400;28;20640;-74
2022/08/16 02:09:13;;;;;;;1.47;0.90;;;21.20;96.80;;;;;;5013047;28;21020;-74
2022/08/16 02:11:43;;;;;;;1.43;0.90;;;21.10;97.20;;;;;;5009617;28;20987;-74
2022/08/16 02:14:12;;;;;;;1.43;0.90;;;21.10;96.60;;;;;;5018580;28;20850;-75
2022/08/16 02:16:41;;;;;;;1.50;0.90;;;21.10;96.90;;;;;;5009678;28;21141;-75
2022/08/16 02:19:09;;;;;;;1.50;0.90;;;21.00;97.20;;;;;;5020378;28;20872;-75
2022/08/16 02:21:37;;;;;;;1.50;0.90;;;21.00;97.20;;;;;;5012233;28;20487;-75
2022/08/16 02:24:05;;;;;;;1.50;0.90;;;21.00;97.20;;;;;;5012810;28;20474;-75
2022/08/16 02:26:32;;;;;;;1.40;0.90;;;20.90;97.90;;;;;;5012522;28;20456;-75
2022/08/16 02:28:59;;;;;;;1.40;1.00;;;20.90;97.40;;;;;;5013738;28;20578;-75
2022/08/16 02:31:28;;;;;;;1.43;0.90;;;20.90;97.50;;;;;;5013828;28;20460;-75
2022/08/16 02:33:55;;;;;;;1.50;0.90;;;20.90;97.50;;;;;;5014143;28;20507;-75
2022/08/16 02:36:22;;;;;;;1.47;0.90;;;20.90;97.40;;;;;;5013979;28;20526;-75
2022/08/16 02:38:49;;;;;;;1.40;0.90;;;20.90;97.60;;;;;;5012734;28;20515;-76
2022/08/16 02:41:16;;;;;;;1.50;0.90;;;20.90;98.10;;;;;;5003689;28;20582;-76
2022/08/16 02:43:43;;;;;;;1.43;0.93;;;20.90;97.60;;;;;;5021652;28;20464;-76
2022/08/16 02:46:10;;;;;;;1.50;1.00;;;20.90;98.20;;;;;;5004190;28;20845;-76
2022/08/16 02:48:40;;;;;;;1.47;0.90;;;20.80;98.00;;;;;;5018452;28;20484;-76
2022/08/16 02:51:08;;;;;;;1.47;0.90;;;20.80;97.40;;;;;;5010548;28;20459;-76
2022/08/16 02:53:37;;;;;;;1.50;0.90;;;20.80;97.90;;;;;;5011489;28;20468;-76
2022/08/16 02:56:05;;;;;;;1.47;0.90;;;20.80;97.90;;;;;;5010062;28;20495;-75
2022/08/16 02:58:32;;;;;;;1.47;0.90;;;20.80;98.20;;;;;;5019657;28;21019;-75
2022/08/16 03:01:00;;;;;;;1.47;0.90;;;20.70;98.20;;;;;;5007893;28;20545;-76
2022/08/16 03:03:28;;;;;;;1.50;0.90;;;20.70;98.10;;;;;;4991502;28;20950;-76
2022/08/16 03:05:57;;;;;;;1.47;0.90;;;20.70;98.20;;;;;;4981771;28;21076;-76
2022/08/16 03:08:24;;;;;;;1.50;0.90;;;20.70;98.20;;;;;;5023365;28;20563;-76
2022/08/16 03:10:51;;;;;;;1.50;0.93;;;20.70;98.00;;;;;;5001240;28;20457;-75
2022/08/16 03:13:18;;;;;;;1.47;0.90;;;20.70;98.20;;;;;;5023024;28;20460;-76
2022/08/16 03:15:46;;;;;;;1.47;0.90;;;20.60;98.20;;;;;;5010892;28;20464;-76
2022/08/16 03:18:14;;;;;;;1.50;0.90;;;20.60;98.20;;;;;;5010554;28;20491;-76
2022/08/16 03:20:41;;;;;;;1.50;0.90;;;20.50;98.20;;;;;;5012054;28;21043;-76
2022/08/16 03:23:10;;;;;;;1.50;0.90;;;20.50;98.20;;;;;;5008884;28;20472;-75
2022/08/16 03:25:37;;;;;;;1.50;1.17;;;20.50;98.20;;;;;;5009724;28;20965;-75
2022/08/16 03:28:05;;;;;;;1.50;0.90;;;20.50;98.20;;;;;;5016305;28;20561;-75
2022/08/16 03:30:33;;;;;;;1.47;0.90;;;20.50;98.20;;;;;;5010798;28;20896;-74
2022/08/16 03:33:01;;;;;;;1.47;0.90;;;20.40;98.20;;;;;;5007940;28;20491;-74
2022/08/16 03:35:30;;;;;;;1.50;0.90;;;20.40;98.20;;;;;;5009411;28;20908;-74
2022/08/16 03:38:00;;;;;;;1.47;0.90;;;20.40;98.20;;;;;;5012877;28;20519;-75
2022/08/16 03:40:30;;;;;;;1.47;0.90;;;20.40;98.20;;;;;;5006330;28;20865;-75
2022/08/16 03:42:56;;;;;;;1.40;0.90;;;20.40;98.20;;;;;;5015380;28;20483;-75
2022/08/16 03:45:25;;;;;;;1.47;0.90;;;20.40;98.20;;;;;;5010444;28;20558;-75
2022/08/16 03:47:52;;;;;;;1.43;0.90;;;20.40;98.20;;;;;;5010087;28;20484;-76
2022/08/16 03:50:19;;;;;;;1.47;0.90;;;20.30;98.20;;;;;;5009854;28;20457;-75
2022/08/16 03:52:47;;;;;;;1.47;0.90;;;20.30;98.20;;;;;;5014746;28;20563;-75
2022/08/16 03:55:14;;;;;;;1.50;0.90;;;20.20;98.20;;;;;;5010464;28;20518;-75
2022/08/16 03:57:43;;;;;;;1.50;0.90;;;20.20;98.20;;;;;;5010466;28;20901;-75
2022/08/16 04:00:15;;;;;;;1.40;0.90;;;20.20;98.20;;;;;;5010062;28;20464;-75
2022/08/16 04:02:43;;;;;;;1.47;0.90;;;20.20;98.20;;;;;;5010552;28;20470;-76
2022/08/16 04:05:12;;;;;;;1.40;0.90;;;20.20;98.20;;;;;;5010232;28;20460;-76
2022/08/16 04:07:40;;;;;;;1.50;0.90;;;20.20;98.20;;;;;;5009710;28;20831;-75
2022/08/16 04:10:10;;;;;;;1.47;0.90;;;20.10;98.20;;;;;;5008923;28;20668;-74
2022/08/16 04:12:38;;;;;;;1.50;0.90;;;20.10;98.20;;;;;;5010831;28;20483;-75
2022/08/16 04:15:09;;;;;;;1.50;0.90;;;20.10;98.20;;;;;;5010792;28;20460;-75
2022/08/16 04:17:36;;;;;;;1.43;0.90;;;20.10;98.20;;;;;;5013281;28;20479;-75
2022/08/16 04:20:07;;;;;;;1.47;0.90;;;20.10;98.20;;;;;;5010242;28;20460;-75
2022/08/16 04:22:34;;;;;;;1.43;0.90;;;20.10;98.20;;;;;;5004519;28;20467;-75
2022/08/16 04:25:02;;;;;;;1.47;0.90;;;20.10;98.20;;;;;;5008896;28;21015;-75
2022/08/16 04:27:29;;;;;;;1.50;1.00;;;20.10;98.20;;;;;;5011856;28;20483;-75
2022/08/16 04:29:56;;;;;;;1.50;0.90;;;20.00;98.20;;;;;;5010959;28;20499;-75
2022/08/16 04:32:25;;;;;;;1.50;0.90;;;20.10;98.20;;;;;;5009155;28;20468;-75
2022/08/16 04:34:53;;;;;;;1.40;0.90;;;20.10;98.20;;;;;;5006605;28;20539;-74
2022/08/16 04:37:20;;;;;;;1.47;0.90;;;20.10;98.20;;;;;;5011425;28;20570;-74
2022/08/16 04:39:47;;;;;;;1.47;0.90;;;20.10;98.20;;;;;;5012763;28;20483;-75
2022/08/16 04:42:16;;;;;;;1.50;0.90;;;20.10;98.20;;;;;;5009976;28;21110;-75
2022/08/16 04:44:43;;;;;;;1.43;0.90;;;20.10;98.20;;;;;;5012757;28;20464;-75
2022/08/16 04:47:11;;;;;;;1.50;0.90;;;20.10;98.20;;;;;;5007811;28;20488;-75
2022/08/16 04:49:39;;;;;;;1.50;0.90;;;20.10;98.20;;;;;;5006356;28;20557;-75
2022/08/16 04:52:07;;;;;;;1.47;0.90;;;20.10;98.20;;;;;;5007908;28;21043;-75
2022/08/16 04:54:34;;;;;;;1.50;0.90;;;20.10;98.20;;;;;;5013929;28;20468;-75
2022/08/16 04:57:02;;;;;;;1.47;0.90;;;20.10;98.20;;;;;;5006976;28;20483;-75
2022/08/16 04:59:29;;;;;;;1.40;0.90;;;20.10;98.20;;;;;;5013731;28;21008;-75
2022/08/16 05:01:56;;;;;;;1.43;0.90;;;20.10;98.20;;;;;;5007752;28;20487;-75
2022/08/16 05:04:24;;;;;;;1.47;0.90;;;20.20;98.20;;;;;;5008281;28;20471;-75
2022/08/16 05:06:52;;;;;;;1.47;0.90;;;20.20;98.20;;;;;;5007627;28;20707;-74
2022/08/16 05:09:19;;;;;;;1.50;0.90;;;20.20;98.20;;;;;;5007832;28;21092;-75
2022/08/16 05:11:47;;;;;;;2.27;2.07;;;20.30;98.20;;;;;;5008579;28;20858;-75
2022/08/16 05:14:15;;;;;;;1.50;0.90;;;20.30;98.20;;;;;;5009082;28;20594;-75
2022/08/16 05:16:43;;;;;;;1.47;0.90;;;20.30;98.20;;;;;;5004415;28;20526;-75
2022/08/16 05:19:11;;;;;;;1.47;0.90;;;20.40;98.20;;;;;;5015650;28;20479;-75
2022/08/16 05:21:38;;;;;;;1.40;0.90;;;20.30;98.20;;;;;;5005944;28;20570;-75
2022/08/16 05:24:08;;;;;;;1.43;0.90;;;20.40;98.20;;;;;;5017520;28;20598;-76
2022/08/16 05:26:36;;;;;;;1.47;0.90;;;20.40;98.20;;;;;;5007560;28;20658;-76
2022/08/16 05:29:05;;;;;;;1.50;0.90;;;20.50;98.20;;;;;;5007683;28;20492;-76
2022/08/16 05:31:33;;;;;;;1.50;0.90;;;20.50;98.20;;;;;;5008366;28;20456;-76
2022/08/16 05:34:02;;;;;;;1.40;0.90;;;20.60;98.20;;;;;;5009625;28;20550;-76
2022/08/16 05:36:30;;;;;;;1.50;0.90;;;20.70;98.20;;;;;;5008219;28;20596;-76
2022/08/16 05:38:58;;;;;;;1.40;0.90;;;20.70;98.20;;;;;;5007560;28;20480;-76
2022/08/16 05:41:27;;;;;;;1.47;0.90;;;20.80;98.20;;;;;;5004929;28;20502;-76
2022/08/16 05:43:55;;;;;;;1.47;0.90;;;20.90;98.20;;;;;;5017309;28;20472;-75
2022/08/16 05:46:22;;;;;;;1.47;0.90;;;21.10;98.20;;;;;;4997538;28;20536;-74
2022/08/16 05:48:50;;;;;;;1.43;0.90;;;21.30;98.20;;;;;;5018753;28;21001;-76
2022/08/16 05:51:18;;;;;;;1.47;0.90;;;21.50;97.60;;;;;;5011230;28;20456;-75
2022/08/16 05:53:45;;;;;;;1.43;0.90;;;21.60;97.70;;;;;;5016217;28;20491;-76
2022/08/16 05:56:13;;;;;;;1.50;0.90;;;21.80;97.20;;;;;;5018050;28;20464;-76
2022/08/16 05:58:42;;;;;;;1.50;0.90;;;21.90;96.70;;;;;;5008658;28;20491;-76
2022/08/16 06:01:09;;;;;;;1.50;0.90;;;22.10;96.40;;;;;;5009617;28;20861;-77
2022/08/16 06:03:37;;;;;;;1.50;1.00;;;22.20;95.70;;;;;;5009651;28;20560;-76
2022/08/16 06:06:05;;;;;;;1.50;0.90;;;22.30;95.80;;;;;;5001458;28;20512;-77
2022/08/16 06:08:32;;;;;;;1.40;0.90;;;22.30;94.70;;;;;;5021010;28;20494;-76
2022/08/16 06:10:59;;;;;;;1.50;0.90;;;22.50;94.00;;;;;;5000701;28;20468;-76
2022/08/16 06:13:27;;;;;;;1.50;0.90;;;22.70;93.10;;;;;;5020220;28;20562;-76
2022/08/16 06:15:55;;;;;;;1.47;0.90;;;22.90;92.70;;;;;;4998969;28;20819;-77
2022/08/16 06:18:22;;;;;;;1.50;0.90;;;23.00;92.70;;;;;;5020659;28;20484;-75
2022/08/16 06:20:50;;;;;;;1.50;0.90;;;23.20;92.20;;;;;;4999503;28;20486;-77
2022/08/16 06:23:18;;;;;;;1.50;0.90;;;23.40;91.30;;;;;;5024907;28;20571;-76
2022/08/16 06:25:45;;;;;;;1.50;0.90;;;23.60;91.00;;;;;;5009263;28;20455;-77
2022/08/16 06:28:12;;;;;;;1.50;0.90;;;23.70;90.10;;;;;;5007151;28;20495;-76
2022/08/16 06:30:40;;;;;;;1.50;0.90;;;23.70;90.30;;;;;;5008868;28;20494;-75
2022/08/16 06:33:09;;;;;;;1.47;0.90;;;23.80;90.10;;;;;;5012288;28;20778;-77
2022/08/16 06:35:36;;;;;;;1.50;0.90;;;23.90;89.40;;;;;;5008972;28;20468;-76
2022/08/16 06:38:04;;;;;;;1.50;0.90;;;24.00;89.50;;;;;;5012378;28;20492;-77
2022/08/16 06:40:32;;;;;;;1.50;0.80;;;24.10;88.90;;;;;;5011501;28;20830;-77
2022/08/16 06:43:00;;;;;;;1.50;0.90;;;24.20;88.50;;;;;;5010011;28;20594;-77
2022/08/16 06:45:27;;;;;;;1.47;0.90;;;24.30;88.30;;;;;;5010383;28;20471;-76
2022/08/16 06:47:54;;;;;;;1.47;0.83;;;24.40;88.30;;;;;;5009318;28;20483;-75
2022/08/16 06:50:24;;;;;;;1.47;0.90;;;24.50;87.90;;;;;;5008955;28;20727;-75
2022/08/16 06:52:51;;;;;;;1.60;1.20;;;24.80;87.70;;;;;;5008120;28;20631;-76
2022/08/16 06:55:19;;;;;;;1.43;0.90;;;25.00;87.00;;;;;;5008975;28;20460;-77
2022/08/16 06:57:47;;;;;;;1.47;0.90;;;25.20;86.90;;;;;;5009963;28;20452;-76
2022/08/16 07:00:16;;;;;;;1.50;1.00;;;25.50;86.40;;;;;;5009812;28;20466;-76
2022/08/16 07:02:44;;;;;;;1.50;0.80;;;25.60;85.40;;;;;;5013651;28;20964;-76
2022/08/16 07:05:13;;;;;;;1.50;1.20;;;25.80;84.50;;;;;;5010048;28;20464;-76
2022/08/16 07:07:43;;;;;;;1.47;0.80;;;25.80;85.10;;;;;;5015464;28;20581;-76
2022/08/16 07:10:11;;;;;;;1.50;0.80;;;25.80;84.60;;;;;;5008463;28;20518;-76
2022/08/16 07:12:39;;;;;;;1.43;0.83;;;26.00;84.40;;;;;;5014658;28;20479;-76
2022/08/16 07:15:08;;;;;;;1.50;0.90;;;26.20;83.60;;;;;;5011554;28;20460;-77
2022/08/16 07:17:35;;;;;;;1.50;0.90;;;26.40;83.40;;;;;;5013249;28;20824;-75
2022/08/16 07:20:53;;;;;;;1.47;0.80;;;26.50;82.20;;;;;;5012573;28;20658;-77
2022/08/16 07:23:26;;;;;;;1.50;0.80;;;26.60;82.30;;;;;;4987076;28;20843;-77
2022/08/16 07:25:55;;;;;;;1.50;0.80;;;26.80;82.50;;;;;;5001305;28;20843;-75
2022/08/16 07:28:22;;;;;;;1.47;0.90;;;26.90;81.20;;;;;;5023085;28;20859;-75
2022/08/16 07:30:49;;;;;;;1.50;0.90;;;26.90;81.90;;;;;;5010195;28;20468;-75
2022/08/16 07:33:17;;;;;;;1.43;0.80;;;27.10;81.70;;;;;;5008914;28;20460;-76
2022/08/16 07:35:44;;;;;;;1.47;0.90;;;27.20;80.70;;;;;;5007171;28;20471;-75
2022/08/16 07:38:12;;;;;;;1.50;0.83;;;27.30;80.70;;;;;;4981826;28;20916;-75
2022/08/16 07:40:40;;;;;;;1.40;0.90;;;27.50;80.80;;;;;;5010817;28;20916;-75
2022/08/16 07:43:07;;;;;;;1.50;1.10;;;27.60;79.50;;;;;;5014309;28;20471;-76
2022/08/16 07:45:35;;;;;;;1.47;0.80;;;27.70;79.70;;;;;;5000524;28;20980;-76
2022/08/16 07:48:03;;;;;;;1.50;0.90;;;27.90;79.60;;;;;;5008839;28;20492;-76
2022/08/16 07:50:30;;;;;;;1.50;0.80;;;28.00;79.40;;;;;;5004793;28;20657;-75
2022/08/16 07:52:57;;;;;;;1.50;0.90;;;28.10;78.60;;;;;;5005502;28;20841;-76
2022/08/16 07:55:24;;;;;;;1.43;0.80;;;28.30;78.50;;;;;;5005785;28;20491;-77
2022/08/16 07:57:53;;;;;;;1.50;0.90;;;28.40;77.60;;;;;;5007583;28;20491;-75
2022/08/16 08:00:20;;;;;;;1.50;0.80;;;28.60;77.90;;;;;;5005462;28;20507;-75
2022/08/16 08:02:48;;;;;;;1.40;0.90;;;28.80;77.80;;;;;;5009960;28;20482;-75
2022/08/16 08:05:15;;;;;;;1.50;0.80;;;28.90;76.60;;;;;;5005540;28;20476;-76
2022/08/16 08:07:42;;;;;;;1.50;0.80;;;29.10;76.50;;;;;;5010213;28;20494;-76
2022/08/16 08:10:10;;;;;;;1.47;0.80;;;29.20;75.80;;;;;;5006364;28;20471;-76
2022/08/16 08:12:37;;;;;;;1.43;0.80;;;29.40;75.60;;;;;;5005261;28;20470;-76
2022/08/16 08:15:10;;;;;;;1.50;0.80;;;29.50;75.00;;;;;;5006134;28;21011;-76
2022/08/16 08:17:38;;;;;;;1.43;0.80;;;29.60;74.50;;;;;;5006557;28;20537;-76
2022/08/16 08:20:07;;;;;;;1.47;0.80;;;29.70;74.80;;;;;;5006458;28;20470;-76
2022/08/16 08:22:35;;;;;;;1.50;0.90;;;29.70;74.50;;;;;;5008752;28;20505;-77
2022/08/16 08:25:03;;;;;;;1.40;0.80;;;29.70;75.10;;;;;;5006897;28;20463;-77
2022/08/16 08:27:30;;;;;;;1.47;0.80;;;29.80;74.40;;;;;;5004433;28;20455;-76
2022/08/16 08:29:58;;;;;;;1.40;0.80;;;30.00;73.90;;;;;;5004534;28;20541;-76
2022/08/16 08:32:27;;;;;;;1.40;0.80;;;30.10;74.00;;;;;;5003479;28;20977;-76
2022/08/16 08:34:54;;;;;;;1.47;0.80;;;30.20;72.40;;;;;;5004054;28;20507;-77
2022/08/16 08:37:22;;;;;;;1.40;0.80;;;30.20;73.30;;;;;;5003919;28;20482;-77
2022/08/16 08:39:49;;;;;;;1.47;0.80;;;30.40;72.90;;;;;;5005066;28;20598;-76
2022/08/16 08:42:16;;;;;;;1.50;0.90;;;30.50;72.40;;;;;;5005193;28;20474;-76
2022/08/16 08:44:44;;;;;;;1.50;0.80;;;30.60;72.10;;;;;;5007970;28;20892;-76
2022/08/16 08:47:11;;;;;;;1.73;1.10;;;30.80;71.30;;;;;;5004781;28;20545;-76
2022/08/16 08:49:39;;;;;;;1.50;0.80;;;30.90;71.30;;;;;;5007102;28;20499;-76
2022/08/16 08:52:07;;;;;;;1.50;0.90;;;31.00;72.10;;;;;;5001973;28;20462;-76
2022/08/16 08:54:35;;;;;;;1.47;0.80;;;31.00;71.00;;;;;;5005249;28;20518;-76
2022/08/16 08:57:02;;;;;;;1.50;0.80;;;31.00;71.40;;;;;;5003328;28;21025;-76
2022/08/16 08:59:30;;;;;;;1.47;0.80;;;31.10;70.90;;;;;;5007595;28;20494;-76
2022/08/16 09:01:58;;;;;;;1.47;0.80;;;31.20;70.30;;;;;;5002898;28;20483;-76
2022/08/16 09:04:25;;;;;;;1.50;1.00;;;31.20;70.40;;;;;;5004497;28;20472;-76
2022/08/16 09:06:54;;;;;;;1.47;0.80;;;31.20;70.30;;;;;;5000943;28;20490;-77
2022/08/16 09:09:22;;;;;;;1.47;0.80;;;31.10;70.00;;;;;;5010226;28;20570;-76
2022/08/16 09:11:50;;;;;;;1.50;1.10;;;31.00;71.20;;;;;;5000615;28;20490;-76
2022/08/16 09:14:17;;;;;;;1.43;0.80;;;31.00;70.80;;;;;;5012537;28;20518;-76
2022/08/16 09:16:44;;;;;;;1.43;0.80;;;31.00;70.80;;;;;;5002201;28;20495;-76
2022/08/16 09:19:12;;;;;;;1.50;0.80;;;31.00;70.90;;;;;;5012054;28;21234;-76
2022/08/16 09:21:39;;;;;;;1.47;0.80;;;31.20;70.10;;;;;;5004728;28;20467;-75
2022/08/16 09:24:09;;;;;;;1.40;0.80;;;31.30;69.70;;;;;;5006904;28;20486;-78
2022/08/16 09:26:39;;;;;;;1.43;0.80;;;31.20;69.50;;;;;;5004570;28;20467;-77
2022/08/16 09:29:07;;;;;;;1.43;0.80;;;31.20;69.40;;;;;;5001400;28;21004;-77
2022/08/16 09:31:34;;;;;;;1.47;0.80;;;31.00;69.50;;;;;;5002326;28;20538;-77
2022/08/16 09:34:02;;;;;;;1.43;0.80;;;30.90;71.00;;;;;;5003145;28;20468;-77
2022/08/16 09:36:30;;;;;;;1.43;0.80;;;31.00;70.50;;;;;;5001812;28;20554;-77
2022/08/16 09:38:57;;;;;;;1.47;0.80;;;31.20;71.00;;;;;;5018691;28;20529;-77
2022/08/16 09:41:26;;;;;;;1.40;0.80;;;31.30;68.90;;;;;;5008126;28;20463;-77
2022/08/16 09:43:56;;;;;;;1.40;0.80;;;31.20;70.90;;;;;;5006691;28;21023;-76
2022/08/16 09:46:24;;;;;;;1.47;0.80;;;31.30;69.40;;;;;;5005295;28;20655;-77
2022/08/16 09:48:53;;;;;;;1.47;0.80;;;31.50;70.10;;;;;;5010249;28;20495;-77
2022/08/16 09:51:21;;;;;;;1.47;0.80;;;31.70;69.20;;;;;;4999550;28;20478;-76
2022/08/16 09:53:48;;;;;;;1.43;0.83;;;32.10;69.00;;;;;;5021143;28;20495;-76
2022/08/16 09:56:32;;;;;;;1.50;0.80;;;32.30;68.80;;;;;;5002581;28;20542;-76
2022/08/16 09:59:01;;;;;;;1.47;0.80;;;32.50;67.10;;;;;;5001180;28;20602;-76
2022/08/16 10:04:12;;;;;;;1.40;0.80;;;32.70;66.60;;;;;;5002085;28;20227;-76
2022/08/16 10:06:40;;;;;;;1.47;0.80;;;32.90;66.10;;;;;;5008173;28;20235;-76
2022/08/16 10:09:13;;;;;;;1.43;0.80;;;33.00;66.30;;;;;;5019642;28;20484;-77
2022/08/16 10:14:31;;;;;;;1.43;0.80;;;33.10;65.90;;;;;;5020263;28;20739;-77
2022/08/16 10:17:00;;;;;;;1.43;0.80;;;33.20;64.90;;;;;;5013332;28;20310;-76
2022/08/16 10:19:29;;;;;;;1.50;1.00;;;32.90;65.20;;;;;;5020204;28;20255;-76
2022/08/16 10:21:58;;;;;;;1.43;0.80;;;32.90;66.70;;;;;;5015804;28;20280;-76
2022/08/16 10:24:26;;;;;;;1.40;0.80;;;33.00;65.30;;;;;;5015924;28;20920;-77
2022/08/16 10:26:59;;;;;;;1.50;0.83;;;33.20;65.30;;;;;;5014976;28;20686;-77
2022/08/16 10:29:26;;;;;;;1.43;0.80;;;33.40;64.00;;;;;;5014504;28;20328;-76
2022/08/16 10:31:57;;;;;;;1.47;0.80;;;33.50;64.70;;;;;;5015592;28;20219;-77
2022/08/16 10:34:24;;;;;;;1.50;0.83;;;33.70;65.20;;;;;;5016905;28;20665;-76
2022/08/16 10:36:53;;;;;;;1.47;0.80;;;34.00;64.00;;;;;;5012665;28;20224;-76
2022/08/16 10:39:20;;;;;;;1.50;1.10;;;34.30;63.70;;;;;;5014079;28;20256;-77
2022/08/16 10:41:50;;;;;;;1.43;0.80;;;34.40;62.50;;;;;;5011641;28;20250;-76
2022/08/16 10:44:29;;;;;;;1.45;0.80;;;34.60;61.40;;;;;;5021821;28;20322;-76
2022/08/16 10:46:57;;;;;;;1.43;0.80;;;34.40;60.50;;;;;;5010584;28;20232;-76
2022/08/16 10:49:58;;;;;;;1.43;0.80;;;34.40;62.30;;;;;;5021888;28;20260;-78
2022/08/16 10:52:26;;;;;;;1.45;0.80;;;34.60;61.70;;;;;;5016969;28;20311;-76
2022/08/16 10:54:54;;;;;;;1.40;0.80;;;34.80;60.40;;;;;;5018131;28;20221;-76
2022/08/16 10:57:23;;;;;;;1.42;0.80;;;35.00;60.30;;;;;;5014804;28;20244;-76
2022/08/16 10:59:52;;;;;;;1.42;0.80;;;35.10;59.00;;;;;;5015484;28;20233;-76
2022/08/16 11:02:21;;;;;;;1.40;0.80;;;35.10;60.30;;;;;;5014919;28;20240;-75
2022/08/16 11:04:49;;;;;;;1.50;1.10;;;35.00;58.40;;;;;;5014059;28;20211;-75
2022/08/16 11:07:17;;;;;;;1.40;0.80;;;34.90;59.90;;;;;;5014412;28;20299;-75
2022/08/16 11:09:45;;;;;;;1.40;0.80;;;34.80;59.70;;;;;;5016987;28;20339;-76
2022/08/16 11:12:12;;;;;;;1.40;0.80;;;34.70;59.80;;;;;;5013539;28;20275;-76
2022/08/16 11:17:23;;;;;;;1.40;0.80;;;34.40;60.60;;;;;;5015756;28;20240;-77
2022/08/16 11:19:51;;;;;;;1.40;0.80;;;34.20;61.40;;;;;;5017799;28;20229;-77
2022/08/16 11:22:20;;;;;;;1.40;0.80;;;34.10;61.90;;;;;;5014867;28;20227;-78
2022/08/16 11:24:47;;;;;;;1.98;1.63;;;34.20;62.00;;;;;;5018238;28;20219;-76
2022/08/16 11:27:19;;;;;;;1.40;0.90;;;34.40;60.60;;;;;;5013890;28;20213;-77
2022/08/16 11:29:48;;;;;;;1.40;0.80;;;34.80;59.80;;;;;;5015305;28;20431;-77
2022/08/16 11:32:17;;;;;;;1.40;0.80;;;35.20;59.90;;;;;;5014932;28;20340;-76
2022/08/16 11:34:45;;;;;;;1.40;0.80;;;35.50;57.70;;;;;;5015738;28;20208;-77
2022/08/16 11:37:13;;;;;;;1.40;0.80;;;35.50;57.80;;;;;;5007291;28;20239;-76
2022/08/16 11:39:41;;;;;;;1.40;0.80;;;35.30;58.50;;;;;;5016702;28;20620;-77
2022/08/16 11:42:08;;;;;;;1.40;0.80;;;35.20;56.80;;;;;;5012671;28;20212;-78
2022/08/16 11:53:57;;;;;;;1.40;0.80;;;34.70;58.40;;;;;;1495318;26;20214;-75
2022/08/16 11:56:24;;;;;;;1.40;0.80;;;34.80;59.00;;;;;;5055806;28;20319;-76
2022/08/16 11:58:51;;;;;;;1.40;0.80;;;34.80;58.40;;;;;;5062985;28;20207;-75
2022/08/16 12:01:18;;;;;;;1.40;0.80;;;34.70;58.40;;;;;;5062097;28;20387;-74
2022/08/16 12:03:46;;;;;;;1.40;0.80;;;34.70;59.60;;;;;;5048182;28;20228;-75
2022/08/16 12:06:16;;;;;;;1.40;0.80;;;35.00;59.70;;;;;;5053238;28;20208;-76
2022/08/16 12:08:46;;;;;;;1.40;0.80;;;35.40;57.70;;;;;;5044919;28;20207;-75
2022/08/16 12:11:15;;;;;;;1.40;0.90;;;35.70;57.10;;;;;;5038276;28;20708;-75
2022/08/16 12:13:43;;;;;;;1.40;0.80;;;36.00;56.40;;;;;;5031576;28;20219;-75
2022/08/16 12:16:10;;;;;;;1.40;0.80;;;36.20;55.70;;;;;;5054351;28;20204;-75
2022/08/16 12:18:38;;;;;;;1.40;0.80;;;36.30;54.40;;;;;;5047992;28;20207;-76
2022/08/16 12:21:06;;;;;;;1.75;1.20;;;36.40;55.30;;;;;;5043980;28;20207;-75
2022/08/16 12:23:33;;;;;;;1.40;0.80;;;36.30;55.30;;;;;;5050022;28;20240;-76
2022/08/16 12:26:01;;;;;;;1.40;0.80;;;36.30;55.50;;;;;;5036056;28;20377;-73
2022/08/16 12:28:31;;;;;;;1.40;0.80;;;36.30;56.40;;;;;;5043939;28;20207;-75
2022/08/16 12:30:59;;;;;;;1.40;0.80;;;36.10;56.30;;;;;;5031278;28;20207;-75
2022/08/16 12:33:26;;;;;;;1.40;0.80;;;36.00;56.90;;;;;;5039073;28;20585;-75
2022/08/16 12:35:54;;;;;;;1.40;0.80;;;35.80;56.20;;;;;;5037229;28;20211;-76
2022/08/16 12:38:22;;;;;;;1.40;0.80;;;35.40;56.20;;;;;;5044385;28;20210;-75
2022/08/16 12:40:52;;;;;;;1.40;0.82;;;35.10;56.60;;;;;;5044588;28;20246;-76
2022/08/16 12:43:21;;;;;;;1.40;0.80;;;34.70;56.80;;;;;;5043088;28;20654;-75
2022/08/16 12:45:59;;;;;;;1.40;0.80;;;34.40;57.50;;;;;;5057551;28;20206;-75
2022/08/16 12:51:23;;;;;;;1.43;0.80;;;34.10;58.60;;;;;;5051990;28;20253;-74
2022/08/16 12:53:51;;;;;;;1.40;0.80;;;34.10;60.00;;;;;;5054384;28;20305;-74
2022/08/16 12:56:19;;;;;;;1.40;0.80;;;34.30;59.30;;;;;;5040282;28;20648;-75
2022/08/16 12:58:50;;;;;;;1.40;0.80;;;34.70;58.60;;;;;;5053148;28;20268;-75
2022/08/16 13:01:19;;;;;;;1.40;0.80;;;35.00;56.20;;;;;;5044777;28;20258;-74
2022/08/16 13:03:46;;;;;;;1.40;0.80;;;35.30;56.70;;;;;;5062792;28;20230;-74
2022/08/16 13:06:14;;;;;;;1.40;0.80;;;35.70;56.70;;;;;;5043665;28;20235;-75
2022/08/16 13:08:43;;;;;;;1.40;0.80;;;36.00;56.20;;;;;;5043805;28;20231;-75
2022/08/16 13:11:15;;;;;;;1.40;0.80;;;36.30;54.80;;;;;;5050410;28;20261;-75
2022/08/16 13:13:45;;;;;;;1.40;0.80;;;36.40;55.20;;;;;;5044875;28;20585;-75
2022/08/16 13:16:12;;;;;;;1.40;0.80;;;36.50;55.90;;;;;;5044876;28;20424;-74